Flight Track Log - Related Links

Times and Time Zones

All times are in EDT time to prevent confusion due to time zone crossing. See the MTN7504 flight status page for this flight to view local times or setup timezone preferences in your user account.

Time Position Orientation Groundspeed Altitude Reporting Facility
EDT Latitude Longitude Course Direction KTS MPH feet Rate Location/Type
Thu 06:17:23 PM 35.0903 -77.1456 301° West 99 114 3,300  Level Washington Center
Thu 06:18:30 PM 35.1022 -77.1789 294° West 99 114 4,100 709 Climbing Washington Center
Thu 06:19:30 PM 35.1122 -77.2094 292° West 96 110 4,800 694 Climbing Washington Center
Thu 06:20:00 PM 35.1537 -77.2809 298° West  Level FlightAware Approximate
Thu 06:20:31 PM 35.1244 -77.2403 296° West 95 109 5,500  Level Washington Center
Thu 06:21:00 PM 35.1708 -77.3207 298° West  Level FlightAware Approximate
Thu 06:21:32 PM 35.1367 -77.2683 298° West 94 108 6,100  Level Washington Center
Thu 06:22:00 PM 35.1884 -77.3602 301° West  Level FlightAware Approximate
Thu 06:22:33 PM 35.1486 -77.3067 291° West 122 140 6,000  Level Washington Center
Thu 06:23:33 PM 35.1625 -77.3475 293° West 128 147 6,000  Level Washington Center
Thu 06:24:34 PM 35.1767 -77.3861 294° West 126 145 6,000  Level Washington Center
Thu 06:25:36 PM 35.1928 -77.4269 296° West 127 146 6,000  Level Washington Center
Thu 06:26:36 PM 35.2067 -77.4656 294° West 128 147 6,000  Level Washington Center
Thu 06:27:37 PM 35.2206 -77.5067 292° West 127 146 6,000  Level Washington Center
Thu 06:28:44 PM 35.2386 -77.5503 297° West 128 147 6,000  Level Washington Center
Thu 06:29:42 PM 35.2525 -77.5911 293° West 129 148 6,000  Level Washington Center
Thu 06:30:48 PM 35.2686 -77.6347 294° West 129 148 6,000  Level Washington Center
Thu 06:31:49 PM 35.2847 -77.6733 297° West 129 148 6,000  Level Washington Center
Thu 06:32:51 PM 35.2986 -77.7144 292° West 130 150 6,000  Level Washington Center
Thu 06:33:51 PM 35.3164 -77.7583 296° West 129 148 6,000  Level Washington Center
Thu 06:34:52 PM 35.3303 -77.7967 294° West 130 150 6,000  Level Washington Center
Thu 06:35:52 PM 35.3422 -77.8406 288° West 130 150 6,000  Level Washington Center
Thu 06:36:53 PM 35.3581 -77.8764 298° West 130 150 6,000  Level Washington Center
Thu 06:37:54 PM 35.3739 -77.9178 295° West 132 152 6,000  Level Washington Center
Thu 06:38:55 PM 35.3900 -77.9589 296° West 130 150 6,000  Level Washington Center
Thu 06:39:31 PM 35.3978 -77.9794 295° West 128 147 6,000  Level Washington Center
Thu 06:40:07 PM 35.4078 -78.0028 298° West 126 145 6,000  Level Washington Center
Thu 06:41:08 PM 35.4217 -78.0439 293° West 128 147 6,000  Level Washington Center
Thu 06:42:08 PM 35.4375 -78.0853 295° West 133 153 6,000  Level Washington Center
Thu 06:43:09 PM 35.4489 -78.1289 288° West 133 153 6,000  Level Washington Center
Thu 06:44:09 PM 35.4669 -78.1728 297° West 131 151 6,000  Level Washington Center
Thu 06:45:10 PM 35.4825 -78.2142 295° West 131 151 6,000  Level Washington Center
Thu 06:46:11 PM 35.4983 -78.2531 297° West 132 152 6,000  Level Washington Center
Thu 06:47:12 PM 35.5100 -78.2917 290° West 133 153 6,000  Level Washington Center
Thu 06:48:13 PM 35.5278 -78.3356 296° West 131 151 6,000  Level Washington Center
Thu 06:49:08 PM 35.5394 -78.3744 290° West 131 151 6,000  Level Washington Center
Thu 06:50:08 PM 35.5553 -78.4158 295° West 129 148 6,000  Level Washington Center
Thu 06:51:10 PM 35.5689 -78.4519 295° West 130 150 6,000  Level Washington Center
Thu 06:52:10 PM 35.5847 -78.4933 295° West 130 150 6,000  Level Washington Center
Thu 06:53:11 PM 35.6003 -78.5375 293° West 130 150 6,000  Level Washington Center
Thu 06:54:11 PM 35.6158 -78.5789 295° West 130 150 6,000  Level Washington Center
Thu 06:55:12 PM 35.6275 -78.6175 290° West 129 148 6,000  Level Washington Center
Thu 06:56:10 PM 35.6453 -78.6617 296° West 133 153 6,000  Level Washington Center
Thu 06:57:17 PM 35.6628 -78.7058 296° West 134 154 6,000  Level Washington Center
Thu 06:58:17 PM 35.6742 -78.7472 289° West 133 153 6,000  Level Washington Center
Thu 06:59:15 PM 35.6919 -78.7836 301° West 132 152 6,000  Level Washington Center
Thu 07:00:15 PM 35.7033 -78.8253 289° West 131 151 6,000  Level Washington Center
Thu 07:01:13 PM 35.7211 -78.8667 298° West 129 148 6,000  Level Washington Center
Thu 07:02:14 PM 35.7344 -78.9108 290° West 132 152 6,000  Level Washington Center
Thu 07:03:15 PM 35.7500 -78.9550 293° West 132 152 6,000  Level Washington Center
Thu 07:04:17 PM 35.7636 -78.9914 295° West 135 155 6,000  Level Washington Center
Thu 07:05:17 PM 35.7811 -79.0331 297° West 131 151 6,000  Level Washington Center
Thu 07:06:19 PM 35.7944 -79.0772 290° West 133 153 6,000  Level Washington Center
Thu 07:07:19 PM 35.8100 -79.1189 295° West 135 155 6,000  Level Washington Center
Thu 07:09:00 PM 35.8342 -79.1862 294° West  Level FlightAware Approximate
Thu 07:16:00 PM 35.9353 -79.4662 295° West  Level FlightAware Approximate
Thu 07:17:00 PM 35.9502 -79.5060 295° West  Level FlightAware Approximate
Thu 07:18:00 PM 35.9651 -79.5457 295° West  Level FlightAware Approximate
Thu 07:19:00 PM 35.9760 -79.5874 287° West  Level FlightAware Approximate
Thu 07:20:00 PM 35.9874 -79.6289 292° West  Level FlightAware Approximate
Thu 07:21:00 PM 36.0009 -79.6694 292° West  Level FlightAware Approximate
Thu 07:22:00 PM 36.0144 -79.7099 292° West  Level FlightAware Approximate
Thu 07:23:00 PM 36.0280 -79.7505 292° West  Level FlightAware Approximate
Thu 07:24:00 PM 36.0415 -79.7910 292° West  Level FlightAware Approximate
Thu 07:25:00 PM 36.0550 -79.8316 292° West  Level FlightAware Approximate
Thu 07:26:00 PM 36.0685 -79.8721 292° West  Level FlightAware Approximate
Thu 07:27:00 PM 36.0820 -79.9127 292° West  Level FlightAware Approximate
Thu 07:28:00 PM 36.1000 -79.9333 321° Northwest  Level FlightAware Approximate
Thu 07:29:00 PM 36.1013 -79.9411 321° Northwest  Level Estimated
Thu 07:30:00 PM 36.1000 -79.9333 321° Northwest  Level FlightAware Approximate
Thu 07:31:00 PM 36.1013 -79.9411 321° Northwest  Level Estimated
Thu 07:32:00 PM 36.1000 -79.9333 321° Northwest  Level FlightAware Approximate
Thu 07:33:00 PM 36.1013 -79.9411 321° Northwest  Level Estimated
Thu 07:34:00 PM 36.1000 -79.9333 321° Northwest  Level FlightAware Approximate

Login

Don't have an account? Register now (free) for customized features, flight alerts, and more!